createdAt,value
2023-05-17T00:01:10.609Z,99.90
2023-05-17T00:03:56.684Z,99.90
2023-05-17T00:06:42.380Z,99.90
2023-05-17T00:09:28.161Z,99.90
2023-05-17T00:12:13.450Z,99.90
2023-05-17T00:14:59.147Z,99.90
2023-05-17T00:17:44.843Z,99.90
2023-05-17T00:20:30.487Z,99.90
2023-05-17T00:23:16.002Z,99.90
2023-05-17T00:26:01.764Z,99.90
2023-05-17T00:28:47.077Z,99.90
2023-05-17T00:31:33.250Z,99.90
2023-05-17T00:34:18.947Z,99.90
2023-05-17T00:37:04.674Z,99.90
2023-05-17T00:39:50.117Z,99.90
2023-05-17T00:42:35.866Z,99.90
2023-05-17T00:45:21.326Z,99.90
2023-05-17T00:48:07.135Z,99.90
2023-05-17T00:50:53.504Z,99.90
2023-05-17T00:53:39.305Z,99.90
2023-05-17T00:56:25.281Z,99.90
2023-05-17T00:59:12.602Z,99.90
2023-05-17T01:01:58.340Z,99.90
2023-05-17T01:04:43.757Z,99.90
2023-05-17T01:07:29.137Z,99.90
2023-05-17T01:10:14.867Z,99.90
2023-05-17T01:13:08.775Z,99.90
2023-05-17T01:16:01.447Z,99.90
2023-05-17T01:18:49.153Z,99.90
2023-05-17T01:21:34.796Z,99.90
2023-05-17T01:24:20.219Z,99.90
2023-05-17T01:27:06.667Z,99.90
2023-05-17T01:29:52.218Z,99.90
2023-05-17T01:32:38.487Z,99.90
2023-05-17T01:35:23.919Z,99.90
2023-05-17T01:38:11.586Z,99.90
2023-05-17T01:41:00.392Z,99.90
2023-05-17T01:43:52.803Z,99.90
2023-05-17T01:46:42.628Z,99.90
2023-05-17T01:49:32.667Z,99.90
2023-05-17T01:52:18.296Z,99.90
2023-05-17T01:55:10.684Z,99.90
2023-05-17T01:57:56.595Z,99.90
2023-05-17T02:00:43.830Z,99.90
2023-05-17T02:03:29.596Z,99.90
2023-05-17T02:06:15.113Z,99.90
2023-05-17T02:09:02.768Z,99.90
2023-05-17T02:11:48.334Z,99.90
2023-05-17T02:14:33.906Z,99.90
2023-05-17T02:17:19.501Z,99.90
2023-05-17T02:20:05.870Z,99.90
2023-05-17T02:22:51.527Z,99.90
2023-05-17T02:25:37.741Z,99.90
2023-05-17T02:28:24.416Z,99.90
2023-05-17T02:31:10.078Z,99.90
2023-05-17T02:33:55.997Z,99.90
2023-05-17T02:36:41.839Z,99.90
2023-05-17T02:39:27.496Z,99.90
2023-05-17T02:42:13.129Z,99.90
2023-05-17T02:44:58.496Z,99.90
2023-05-17T02:47:46.212Z,99.90
2023-05-17T02:50:32.005Z,99.90
2023-05-17T02:53:18.204Z,99.90
2023-05-17T02:56:04.534Z,99.90
2023-05-17T02:58:51.285Z,99.90
2023-05-17T03:01:37.052Z,99.90
2023-05-17T03:04:23.601Z,99.90
2023-05-17T03:07:09.078Z,99.90
2023-05-17T03:09:55.906Z,99.90
2023-05-17T03:12:42.494Z,99.90
2023-05-17T03:15:31.053Z,99.90
2023-05-17T03:18:16.979Z,99.90
2023-05-17T03:21:02.860Z,99.90
2023-05-17T03:23:48.463Z,99.90
2023-05-17T03:26:34.230Z,99.90
2023-05-17T03:29:19.770Z,99.90
2023-05-17T03:32:05.604Z,99.90
2023-05-17T03:34:51.660Z,99.90
2023-05-17T03:37:37.415Z,99.90
2023-05-17T03:40:24.044Z,99.90
2023-05-17T03:43:09.540Z,99.90
2023-05-17T03:45:55.614Z,99.90
2023-05-17T03:48:41.457Z,99.90
2023-05-17T03:51:28.203Z,99.90
2023-05-17T03:54:14.114Z,99.90
2023-05-17T03:56:59.335Z,99.90
2023-05-17T03:59:45.019Z,99.90
2023-05-17T04:02:30.716Z,99.90
2023-05-17T04:05:16.599Z,99.90
2023-05-17T04:08:04.051Z,99.90
2023-05-17T04:10:49.850Z,99.90
2023-05-17T04:13:36.366Z,99.90
2023-05-17T04:16:22.168Z,99.90
2023-05-17T04:19:07.784Z,99.90
2023-05-17T04:21:53.313Z,99.90
2023-05-17T04:24:41.615Z,99.90
2023-05-17T04:27:27.344Z,99.90
2023-05-17T04:30:13.237Z,99.90
2023-05-17T04:32:59.157Z,99.90
2023-05-17T04:35:44.623Z,99.90
2023-05-17T04:38:31.572Z,99.90
2023-05-17T04:41:17.991Z,99.90
2023-05-17T04:44:04.141Z,99.90
2023-05-17T04:46:53.990Z,99.90
2023-05-17T04:49:39.756Z,99.90
2023-05-17T04:52:25.420Z,99.90
2023-05-17T04:55:11.617Z,99.90
2023-05-17T04:57:57.537Z,99.90
2023-05-17T05:00:44.629Z,99.90
2023-05-17T05:03:30.691Z,99.90
2023-05-17T05:06:16.906Z,99.90
2023-05-17T05:09:04.185Z,99.90
2023-05-17T05:11:51.625Z,99.90
2023-05-17T05:14:37.376Z,99.90
2023-05-17T05:17:23.361Z,99.90
2023-05-17T05:20:10.077Z,99.90
2023-05-17T05:22:57.412Z,99.90
2023-05-17T05:25:43.473Z,99.90
2023-05-17T05:28:30.387Z,99.90
2023-05-17T05:31:15.939Z,99.90
2023-05-17T05:34:07.440Z,99.90
2023-05-17T05:36:52.951Z,99.90
2023-05-17T05:39:39.155Z,99.90
2023-05-17T05:42:24.806Z,99.90
2023-05-17T05:45:10.783Z,99.90
2023-05-17T05:47:57.346Z,99.90
2023-05-17T05:50:44.116Z,99.90
2023-05-17T05:53:29.644Z,99.90
2023-05-17T05:56:15.427Z,99.90
2023-05-17T05:59:00.993Z,99.90
2023-05-17T06:01:47.910Z,99.90
2023-05-17T06:04:44.667Z,99.90
2023-05-17T06:07:30.776Z,99.90
2023-05-17T06:10:16.398Z,99.90
2023-05-17T06:13:02.062Z,99.90
2023-05-17T06:15:47.884Z,99.90
2023-05-17T06:18:33.799Z,99.90
2023-05-17T06:21:19.650Z,99.90
2023-05-17T06:24:05.394Z,99.90
2023-05-17T06:26:50.661Z,99.90
2023-05-17T06:29:36.475Z,99.90
2023-05-17T06:32:21.818Z,99.90
2023-05-17T06:35:08.459Z,99.90
2023-05-17T06:37:53.798Z,99.90
2023-05-17T06:40:39.488Z,99.90
2023-05-17T06:43:25.174Z,99.90
2023-05-17T06:46:11.350Z,99.90
2023-05-17T06:48:57.233Z,99.90
2023-05-17T06:51:43.109Z,99.90
2023-05-17T06:54:28.883Z,99.90
2023-05-17T06:57:14.365Z,99.90
2023-05-17T06:59:59.930Z,99.90
2023-05-17T07:02:45.710Z,99.90
2023-05-17T07:05:31.680Z,99.90
2023-05-17T07:08:17.608Z,99.90
2023-05-17T07:11:03.614Z,99.90
2023-05-17T07:13:50.692Z,99.90
2023-05-17T07:16:37.174Z,99.90
2023-05-17T07:19:23.086Z,99.90
2023-05-17T07:22:08.531Z,99.90
2023-05-17T07:24:53.902Z,99.90
2023-05-17T07:27:39.569Z,99.90
2023-05-17T07:30:25.087Z,99.90
2023-05-17T07:33:11.582Z,99.90
2023-05-17T07:35:57.052Z,99.90
2023-05-17T07:38:42.773Z,99.90
2023-05-17T07:41:28.272Z,99.90
2023-05-17T07:44:13.939Z,99.90
2023-05-17T07:46:59.532Z,98.00
2023-05-17T07:49:45.082Z,98.00
2023-05-17T07:52:30.966Z,99.50
2023-05-17T07:55:17.162Z,98.50
2023-05-17T07:58:03.028Z,99.00
2023-05-17T08:00:49.427Z,98.00
2023-05-17T08:03:35.077Z,99.90
2023-05-17T08:06:20.632Z,99.90
2023-05-17T08:09:06.127Z,98.80
2023-05-17T08:11:51.587Z,97.60
2023-05-17T08:14:37.333Z,99.80
2023-05-17T08:17:23.008Z,99.90
2023-05-17T08:20:08.960Z,95.10
2023-05-17T08:22:55.080Z,95.30
2023-05-17T08:25:41.973Z,95.00
2023-05-17T08:28:27.378Z,96.80
2023-05-17T08:31:13.132Z,94.80
2023-05-17T08:33:58.926Z,94.20
2023-05-17T08:36:44.595Z,96.30
2023-05-17T08:39:31.534Z,95.70
2023-05-17T08:42:25.371Z,94.70
2023-05-17T08:45:11.180Z,99.00
2023-05-17T08:47:57.094Z,91.90
2023-05-17T08:50:42.919Z,93.20
2023-05-17T08:53:28.649Z,95.20
2023-05-17T08:56:15.895Z,94.40
2023-05-17T08:59:01.557Z,94.30
2023-05-17T09:01:52.534Z,90.20
2023-05-17T09:04:38.631Z,90.20
2023-05-17T09:07:24.304Z,93.20
2023-05-17T09:10:09.870Z,89.00
2023-05-17T09:12:55.362Z,91.00
2023-05-17T09:15:44.531Z,88.20
2023-05-17T09:18:31.594Z,87.70
2023-05-17T09:21:17.902Z,88.90
2023-05-17T09:24:08.111Z,82.10
2023-05-17T09:26:54.016Z,83.20
2023-05-17T09:29:39.664Z,84.60
2023-05-17T09:32:25.545Z,86.50
2023-05-17T09:35:11.246Z,89.90
2023-05-17T09:38:05.096Z,88.60
2023-05-17T09:40:50.786Z,84.40
2023-05-17T09:43:36.322Z,86.30
2023-05-17T09:46:21.780Z,89.50
2023-05-17T09:49:09.292Z,85.00
2023-05-17T09:51:54.970Z,86.80
2023-05-17T09:54:41.305Z,84.10
2023-05-17T09:57:27.988Z,81.30
2023-05-17T10:00:13.979Z,83.90
2023-05-17T10:03:00.311Z,84.90
2023-05-17T10:05:46.773Z,85.50
2023-05-17T10:08:33.567Z,91.00
2023-05-17T10:11:22.898Z,83.20
2023-05-17T10:14:13.250Z,85.80
2023-05-17T10:16:59.081Z,82.50
2023-05-17T10:19:45.095Z,79.30
2023-05-17T10:22:31.280Z,79.00
2023-05-17T10:25:17.123Z,81.30
2023-05-17T10:28:02.805Z,84.70
2023-05-17T10:30:48.620Z,83.90
2023-05-17T10:33:34.306Z,87.70
2023-05-17T10:36:20.925Z,85.30
2023-05-17T10:39:08.068Z,75.30
2023-05-17T10:42:03.468Z,71.40
2023-05-17T10:45:00.853Z,75.80
2023-05-17T10:47:46.792Z,77.50
2023-05-17T10:50:32.627Z,73.30
2023-05-17T10:53:18.025Z,77.20
2023-05-17T10:56:03.897Z,76.90
2023-05-17T10:59:09.331Z,72.90
2023-05-17T11:01:58.095Z,77.00
2023-05-17T11:04:45.024Z,68.60
2023-05-17T11:07:37.343Z,70.00
2023-05-17T11:10:22.913Z,74.50
2023-05-17T11:13:25.698Z,73.70
2023-05-17T11:16:14.948Z,70.20
2023-05-17T11:19:07.179Z,69.00
2023-05-17T11:21:53.000Z,70.50
2023-05-17T11:24:41.439Z,69.80
2023-05-17T11:27:28.920Z,69.20
2023-05-17T11:30:26.891Z,73.50
2023-05-17T11:33:25.409Z,73.30
2023-05-17T11:36:19.754Z,72.60
2023-05-17T11:39:15.805Z,64.30
2023-05-17T11:42:01.903Z,62.60
2023-05-17T11:44:47.538Z,67.40
2023-05-17T11:47:33.261Z,65.10
2023-05-17T11:50:19.236Z,66.20
2023-05-17T11:53:06.839Z,66.50
2023-05-17T11:55:52.641Z,69.10
2023-05-17T11:58:38.382Z,64.50
2023-05-17T12:01:24.002Z,64.00
2023-05-17T12:04:09.561Z,69.00
2023-05-17T12:06:55.730Z,71.20
2023-05-17T12:09:44.687Z,66.50
2023-05-17T12:12:30.720Z,68.90
2023-05-17T12:15:19.623Z,64.50
2023-05-17T12:18:05.129Z,66.30
2023-05-17T12:20:57.431Z,62.90
2023-05-17T12:23:43.958Z,65.40
2023-05-17T12:26:29.255Z,63.20
2023-05-17T12:29:15.985Z,64.60
2023-05-17T12:32:01.789Z,60.80
2023-05-17T12:34:49.328Z,65.30
2023-05-17T12:37:35.258Z,62.80
2023-05-17T12:40:20.695Z,65.10
2023-05-17T12:43:06.452Z,65.90
2023-05-17T12:45:52.769Z,64.50
2023-05-17T12:48:39.915Z,65.50
2023-05-17T12:51:25.667Z,67.60
2023-05-17T12:54:18.843Z,63.60
2023-05-17T12:57:12.725Z,65.30
2023-05-17T12:59:58.469Z,65.10
2023-05-17T13:02:44.474Z,65.20
2023-05-17T13:05:30.581Z,63.40
2023-05-17T13:08:19.829Z,63.10
2023-05-17T13:11:06.009Z,60.90
2023-05-17T13:13:51.729Z,60.50
2023-05-17T13:16:37.883Z,59.70
2023-05-17T13:19:23.552Z,62.70
2023-05-17T13:22:09.337Z,62.90
2023-05-17T13:24:55.571Z,63.20
2023-05-17T13:27:45.308Z,62.40
2023-05-17T13:30:31.375Z,63.70
2023-05-17T13:33:17.176Z,61.80
2023-05-17T13:36:02.726Z,62.80
2023-05-17T13:38:48.563Z,61.40
2023-05-17T13:41:34.142Z,58.00
2023-05-17T13:44:20.045Z,59.70
2023-05-17T13:47:05.855Z,62.30
2023-05-17T13:49:51.118Z,60.90
2023-05-17T13:52:36.789Z,60.40
2023-05-17T13:55:22.486Z,60.50
2023-05-17T13:58:07.785Z,61.30
2023-05-17T14:00:53.509Z,62.70
2023-05-17T14:03:39.184Z,62.30
2023-05-17T14:06:24.864Z,60.70
2023-05-17T14:09:10.441Z,59.70
2023-05-17T14:11:55.650Z,61.00
2023-05-17T14:14:41.408Z,64.00
2023-05-17T14:17:26.858Z,64.50
2023-05-17T14:20:14.134Z,61.90
2023-05-17T14:22:59.970Z,60.10
2023-05-17T14:25:48.324Z,58.40
2023-05-17T14:28:36.362Z,59.50
2023-05-17T14:31:22.140Z,62.10
2023-05-17T14:34:07.867Z,60.40
2023-05-17T14:36:53.324Z,59.50
2023-05-17T14:39:38.927Z,61.30
2023-05-17T14:42:25.810Z,61.40
2023-05-17T14:45:11.379Z,59.60
2023-05-17T14:47:56.914Z,59.90
2023-05-17T14:50:42.353Z,59.80
2023-05-17T14:53:29.411Z,58.50
2023-05-17T14:56:15.377Z,59.10
2023-05-17T14:59:00.764Z,57.60
2023-05-17T15:01:46.681Z,57.60
2023-05-17T15:04:32.240Z,56.50
2023-05-17T15:07:17.752Z,55.00
2023-05-17T15:10:04.254Z,55.80
2023-05-17T15:12:49.849Z,56.10
2023-05-17T15:15:35.488Z,56.80
2023-05-17T15:18:21.384Z,57.00
2023-05-17T15:21:07.168Z,56.90
2023-05-17T15:23:52.845Z,56.60
2023-05-17T15:26:38.603Z,56.60
2023-05-17T15:29:23.979Z,56.20
2023-05-17T15:32:09.599Z,55.90
2023-05-17T15:34:55.177Z,55.10
2023-05-17T15:37:41.348Z,54.80
2023-05-17T15:40:27.691Z,55.50
2023-05-17T15:43:12.979Z,54.90
2023-05-17T15:45:58.735Z,54.30
2023-05-17T15:48:44.362Z,54.80
2023-05-17T15:51:29.985Z,56.20
2023-05-17T15:54:15.767Z,56.40
2023-05-17T15:57:01.485Z,56.80
2023-05-17T15:59:46.884Z,57.80
2023-05-17T16:02:32.711Z,59.30
2023-05-17T16:05:18.215Z,61.00
2023-05-17T16:08:04.151Z,61.60
2023-05-17T16:10:49.565Z,63.60
2023-05-17T16:13:35.235Z,65.60
2023-05-17T16:16:20.911Z,68.50
2023-05-17T16:19:06.629Z,69.30
2023-05-17T16:21:52.257Z,72.50
2023-05-17T16:24:37.693Z,66.10
2023-05-17T16:27:23.319Z,76.10
2023-05-17T16:30:08.979Z,76.60
2023-05-17T16:32:54.426Z,79.10
2023-05-17T16:35:40.395Z,80.10
2023-05-17T16:38:26.275Z,81.40
2023-05-17T16:41:11.555Z,82.00
2023-05-17T16:43:57.154Z,83.20
2023-05-17T16:46:42.622Z,83.50
2023-05-17T16:49:30.183Z,84.40
2023-05-17T16:52:15.830Z,81.00
2023-05-17T16:55:03.262Z,83.40
2023-05-17T16:57:48.999Z,76.90
2023-05-17T17:00:34.784Z,78.00
2023-05-17T17:03:20.421Z,80.70
2023-05-17T17:06:06.017Z,77.10
2023-05-17T17:08:51.720Z,66.00
2023-05-17T17:11:37.329Z,63.50
2023-05-17T17:14:24.222Z,65.80
2023-05-17T17:17:09.949Z,71.90
2023-05-17T17:19:55.302Z,66.20
2023-05-17T17:22:41.503Z,61.00
2023-05-17T17:25:28.143Z,61.10
2023-05-17T17:28:13.880Z,62.10
2023-05-17T17:30:59.393Z,62.60
2023-05-17T17:33:45.118Z,63.30
2023-05-17T17:36:31.112Z,60.40
2023-05-17T17:39:17.323Z,60.90
2023-05-17T17:42:03.047Z,62.20
2023-05-17T17:44:48.691Z,59.90
2023-05-17T17:47:34.235Z,65.60
2023-05-17T17:50:19.990Z,62.40
2023-05-17T17:53:05.556Z,62.40
2023-05-17T17:55:51.242Z,61.90
2023-05-17T17:58:36.875Z,69.10
2023-05-17T18:01:23.203Z,62.30
2023-05-17T18:04:09.484Z,65.20
2023-05-17T18:06:55.650Z,59.10
2023-05-17T18:09:41.420Z,62.50
2023-05-17T18:12:27.659Z,65.20
2023-05-17T18:15:13.377Z,65.40
2023-05-17T18:17:58.951Z,62.20
2023-05-17T18:20:44.399Z,64.70
2023-05-17T18:23:30.139Z,65.60
2023-05-17T18:26:15.442Z,62.40
2023-05-17T18:29:01.272Z,67.80
2023-05-17T18:31:47.474Z,61.60
2023-05-17T18:34:33.051Z,62.90
2023-05-17T18:37:18.515Z,67.70
2023-05-17T18:40:04.400Z,68.60
2023-05-17T18:42:49.705Z,67.60
2023-05-17T18:45:36.505Z,68.00
2023-05-17T18:48:22.267Z,69.80
2023-05-17T18:51:07.825Z,69.00
2023-05-17T18:53:53.743Z,71.80
2023-05-17T18:56:39.453Z,68.50
2023-05-17T18:59:25.106Z,71.20
2023-05-17T19:02:10.906Z,70.20
2023-05-17T19:04:56.445Z,70.20
2023-05-17T19:07:42.315Z,70.90
2023-05-17T19:10:28.248Z,72.00
2023-05-17T19:13:14.132Z,72.90
2023-05-17T19:16:01.076Z,68.40
2023-05-17T19:18:46.636Z,70.50
2023-05-17T19:21:32.309Z,70.60
2023-05-17T19:24:17.951Z,72.80
2023-05-17T19:27:03.275Z,69.50
2023-05-17T19:29:49.118Z,69.60
2023-05-17T19:32:34.681Z,72.40
2023-05-17T19:35:20.310Z,69.20
2023-05-17T19:38:06.368Z,71.60
2023-05-17T19:40:51.977Z,72.10
2023-05-17T19:43:38.130Z,71.20
2023-05-17T19:46:23.705Z,70.80
2023-05-17T19:49:09.500Z,71.10
2023-05-17T19:52:00.458Z,71.60
2023-05-17T19:54:46.425Z,76.40
2023-05-17T19:57:32.091Z,78.00
2023-05-17T20:00:18.175Z,76.60
2023-05-17T20:03:03.663Z,74.40
2023-05-17T20:05:49.873Z,76.20
2023-05-17T20:08:35.728Z,77.00
2023-05-17T20:11:21.629Z,74.60
2023-05-17T20:14:07.121Z,76.10
2023-05-17T20:16:52.722Z,75.90
2023-05-17T20:19:38.548Z,76.00
2023-05-17T20:22:24.246Z,77.40
2023-05-17T20:25:09.610Z,78.60
2023-05-17T20:27:55.094Z,76.20
2023-05-17T20:30:44.168Z,77.80
2023-05-17T20:33:29.557Z,79.30
2023-05-17T20:36:15.347Z,78.20
2023-05-17T20:39:00.769Z,81.20
2023-05-17T20:41:47.750Z,81.20
2023-05-17T20:44:34.113Z,79.60
2023-05-17T20:47:20.176Z,83.80
2023-05-17T20:50:06.207Z,81.40
2023-05-17T20:52:51.926Z,82.10
2023-05-17T20:55:37.499Z,82.20
2023-05-17T20:58:23.523Z,84.30
2023-05-17T21:01:08.844Z,86.00
2023-05-17T21:03:54.340Z,82.80
2023-05-17T21:06:40.041Z,83.50
2023-05-17T21:09:26.791Z,84.40
2023-05-17T21:12:12.188Z,85.50
2023-05-17T21:15:14.403Z,85.60
2023-05-17T21:18:01.129Z,85.50
2023-05-17T21:20:46.799Z,85.60
2023-05-17T21:23:32.185Z,87.60
2023-05-17T21:26:17.833Z,90.50
2023-05-17T21:29:03.183Z,87.90
2023-05-17T21:31:49.115Z,90.10
2023-05-17T21:34:34.852Z,90.20
2023-05-17T21:37:20.451Z,91.30
2023-05-17T21:40:07.940Z,90.70
2023-05-17T21:42:53.515Z,89.40
2023-05-17T21:45:39.947Z,90.60
2023-05-17T21:48:26.014Z,91.00
2023-05-17T21:51:11.848Z,91.20
2023-05-17T21:53:57.221Z,92.40
2023-05-17T21:56:43.089Z,91.90
2023-05-17T21:59:28.501Z,92.50
2023-05-17T22:02:14.242Z,91.20
2023-05-17T22:04:59.582Z,91.10
2023-05-17T22:07:45.295Z,90.80
2023-05-17T22:10:32.579Z,91.80
2023-05-17T22:13:18.346Z,91.90
2023-05-17T22:16:04.235Z,92.00
2023-05-17T22:18:52.457Z,94.00
2023-05-17T22:21:37.726Z,92.50
2023-05-17T22:24:23.293Z,93.80
2023-05-17T22:27:09.164Z,94.50
2023-05-17T22:29:54.779Z,94.60
2023-05-17T22:32:40.492Z,94.50
2023-05-17T22:35:26.055Z,93.80
2023-05-17T22:38:11.516Z,95.00
2023-05-17T22:40:57.350Z,94.30
2023-05-17T22:43:43.031Z,95.80
2023-05-17T22:46:28.764Z,95.00
2023-05-17T22:49:14.389Z,95.90
2023-05-17T22:52:05.434Z,95.80
2023-05-17T22:54:50.870Z,95.70
2023-05-17T22:57:36.641Z,96.80
2023-05-17T23:00:22.056Z,96.10
2023-05-17T23:03:07.499Z,96.60
2023-05-17T23:06:02.176Z,95.90
2023-05-17T23:08:52.987Z,96.70
2023-05-17T23:11:41.028Z,96.70
2023-05-17T23:14:26.469Z,97.00
2023-05-17T23:17:12.131Z,97.50
2023-05-17T23:20:12.731Z,97.20
2023-05-17T23:22:59.643Z,97.50
2023-05-17T23:25:48.817Z,97.50
2023-05-17T23:28:34.397Z,98.50
2023-05-17T23:31:21.736Z,96.90
2023-05-17T23:34:07.641Z,98.20
2023-05-17T23:36:53.344Z,99.40
2023-05-17T23:39:38.929Z,97.30
2023-05-17T23:42:26.429Z,99.10
2023-05-17T23:45:11.910Z,99.30
2023-05-17T23:48:02.174Z,98.90
2023-05-17T23:50:48.012Z,99.00
2023-05-17T23:53:34.182Z,99.70
2023-05-17T23:56:20.036Z,99.50
2023-05-17T23:59:05.825Z,99.10
